Current Weather

Fukuoka

Fukuoka, Japan (RJFF)

Report from: Sunday, November 27, 2022 5:00 PM JST
Current time: Sunday, November 27, 2022 5:34 PM JST

Nearby weather
Weather history
Weather forecast

Temperature18.0°C (64.4°F)
Dew point8.0°C (46.4°F)
Winds 5 kts (2.6 m/s, 5.8 mph) Vrb
Winds variableWinds variable from East-Northeast (70°) to North-Northwest (340°)
Visibility6.2 mi. (10 km)
Clouds Ceiling: Broken clouds 0 ft. (0 m)
Few clouds 4,000 ft. (1,219 m)
Altimeter30.09 in.Hg (1019 mB)
Relative humidity52 %
Density altitude314 ft. (96 m)
Flight conditions Low Instrument Meteorological Conditions
Raw dataRJFF 270800Z 01005KT 340V070 9999 FEW040 BKN/// 18/08 Q1019 BECMG FM0930 11005KT RMK 1CU040 A3010
An error has occurred. This application may no longer respond until reloaded. Reload 🗙